createdAt,value
2023-01-19T00:01:24.459Z,2.68
2023-01-19T00:03:52.113Z,2.69
2023-01-19T00:06:19.785Z,2.66
2023-01-19T00:08:49.831Z,2.62
2023-01-19T00:11:20.459Z,2.65
2023-01-19T00:13:51.153Z,2.64
2023-01-19T00:16:19.108Z,2.65
2023-01-19T00:18:46.849Z,2.66
2023-01-19T00:21:14.959Z,2.68
2023-01-19T00:23:42.872Z,2.69
2023-01-19T00:26:10.944Z,2.69
2023-01-19T00:28:38.576Z,2.68
2023-01-19T00:31:06.266Z,2.71
2023-01-19T00:33:33.860Z,2.69
2023-01-19T00:36:01.559Z,2.66
2023-01-19T00:38:29.188Z,2.63
2023-01-19T00:40:56.866Z,2.56
2023-01-19T00:43:24.474Z,2.52
2023-01-19T00:45:52.917Z,2.50
2023-01-19T00:48:20.640Z,2.45
2023-01-19T00:50:49.201Z,2.42
2023-01-19T00:53:16.847Z,2.44
2023-01-19T00:55:44.543Z,2.43
2023-01-19T00:58:12.237Z,2.40
2023-01-19T01:00:39.874Z,2.40
2023-01-19T01:03:07.612Z,2.42
2023-01-19T01:05:35.565Z,2.43
2023-01-19T01:08:03.224Z,2.45
2023-01-19T01:10:31.116Z,2.44
2023-01-19T01:12:59.027Z,2.44
2023-01-19T01:15:27.126Z,2.51
2023-01-19T01:17:54.771Z,2.54
2023-01-19T01:20:22.445Z,2.52
2023-01-19T01:22:50.112Z,2.51
2023-01-19T01:25:17.716Z,2.46
2023-01-19T01:27:45.363Z,2.44
2023-01-19T01:30:13.043Z,2.43
2023-01-19T01:32:40.684Z,2.43
2023-01-19T01:35:09.235Z,2.41
2023-01-19T01:37:36.888Z,2.47
2023-01-19T01:40:04.559Z,2.47
2023-01-19T01:42:32.230Z,2.46
2023-01-19T01:45:00.987Z,2.44
2023-01-19T01:47:28.641Z,2.43
2023-01-19T01:49:56.216Z,2.45
2023-01-19T01:52:24.075Z,2.46
2023-01-19T01:54:52.941Z,2.47
2023-01-19T01:57:20.633Z,2.52
2023-01-19T01:59:48.266Z,2.52
2023-01-19T02:02:34.965Z,2.49
2023-01-19T02:05:04.283Z,2.47
2023-01-19T02:07:50.818Z,2.48
2023-01-19T02:10:37.095Z,2.50
2023-01-19T02:13:20.762Z,2.48
2023-01-19T02:15:48.458Z,2.45
2023-01-19T02:18:16.069Z,2.47
2023-01-19T02:20:43.813Z,2.44
2023-01-19T02:23:11.508Z,2.40
2023-01-19T02:25:40.724Z,2.38
2023-01-19T02:28:08.355Z,2.35
2023-01-19T02:30:36.008Z,2.32
2023-01-19T02:33:03.860Z,2.30
2023-01-19T02:35:31.565Z,2.32
2023-01-19T02:37:59.176Z,2.37
2023-01-19T02:40:26.816Z,2.38
2023-01-19T02:42:54.434Z,2.37
2023-01-19T02:45:22.081Z,2.33
2023-01-19T02:47:49.715Z,2.31
2023-01-19T02:50:17.545Z,2.27
2023-01-19T02:52:46.224Z,2.21
2023-01-19T02:55:13.862Z,2.16
2023-01-19T02:57:43.804Z,2.20
2023-01-19T03:00:11.421Z,2.23
2023-01-19T03:02:39.073Z,2.21
2023-01-19T03:05:06.768Z,2.20
2023-01-19T03:07:34.382Z,2.19
2023-01-19T03:10:02.018Z,2.20
2023-01-19T03:12:29.659Z,2.18
2023-01-19T03:14:57.275Z,2.20
2023-01-19T03:17:24.955Z,2.26
2023-01-19T03:19:52.952Z,2.31
2023-01-19T03:22:20.565Z,2.33
2023-01-19T03:24:48.209Z,2.33
2023-01-19T03:27:15.862Z,2.31
2023-01-19T03:29:43.531Z,2.29
2023-01-19T03:32:11.156Z,2.28
2023-01-19T03:34:38.761Z,2.26
2023-01-19T03:37:06.427Z,2.30
2023-01-19T03:39:34.072Z,2.31
2023-01-19T03:42:02.439Z,2.28
2023-01-19T03:44:30.078Z,2.27
2023-01-19T03:46:57.775Z,2.24
2023-01-19T03:49:25.421Z,2.16
2023-01-19T03:51:53.072Z,2.12
2023-01-19T03:54:20.715Z,2.12
2023-01-19T03:56:48.324Z,2.17
2023-01-19T03:59:17.693Z,2.17
2023-01-19T04:01:45.448Z,2.10
2023-01-19T04:04:15.937Z,2.03
2023-01-19T04:06:43.872Z,1.94
2023-01-19T04:09:11.502Z,1.88
2023-01-19T04:11:39.120Z,1.78
2023-01-19T04:14:06.816Z,1.69
2023-01-19T04:16:34.436Z,1.67
2023-01-19T04:19:02.064Z,1.64
2023-01-19T04:21:29.678Z,1.61
2023-01-19T04:23:57.411Z,1.56
2023-01-19T04:26:25.089Z,1.55
2023-01-19T04:28:52.767Z,1.52
2023-01-19T04:31:20.641Z,1.54
2023-01-19T04:33:48.441Z,1.62
2023-01-19T04:36:16.072Z,1.76
2023-01-19T04:38:43.711Z,1.85
2023-01-19T04:41:11.305Z,1.89
2023-01-19T04:43:38.927Z,1.96
2023-01-19T04:46:06.980Z,2.02
2023-01-19T04:48:34.611Z,2.07
2023-01-19T04:51:02.286Z,2.12
2023-01-19T04:53:29.979Z,2.23
2023-01-19T04:55:57.714Z,2.26
2023-01-19T04:58:25.340Z,2.27
2023-01-19T05:00:53.361Z,2.27
2023-01-19T05:03:21.035Z,2.25
2023-01-19T05:05:48.717Z,2.23
2023-01-19T05:08:16.409Z,2.19
2023-01-19T05:10:44.075Z,2.20
2023-01-19T05:13:11.680Z,2.24
2023-01-19T05:15:39.291Z,2.24
2023-01-19T05:18:06.903Z,2.24
2023-01-19T05:20:34.539Z,2.23
2023-01-19T05:23:02.551Z,2.23
2023-01-19T05:25:30.560Z,2.21
2023-01-19T05:27:58.206Z,2.20
2023-01-19T05:30:25.838Z,2.26
2023-01-19T05:32:53.471Z,2.31
2023-01-19T05:35:31.251Z,2.34
2023-01-19T05:38:03.112Z,2.38
2023-01-19T05:40:30.757Z,2.40
2023-01-19T05:43:01.512Z,2.41
2023-01-19T05:45:29.397Z,2.41
2023-01-19T05:47:57.025Z,2.42
2023-01-19T05:50:25.502Z,2.46
2023-01-19T05:52:53.594Z,2.47
2023-01-19T05:55:21.220Z,2.46
2023-01-19T05:57:48.849Z,2.44
2023-01-19T06:00:16.588Z,2.44
2023-01-19T06:02:44.275Z,2.42
2023-01-19T06:05:12.077Z,2.40
2023-01-19T06:07:39.701Z,2.38
2023-01-19T06:10:07.351Z,2.42
2023-01-19T06:12:34.987Z,2.40
2023-01-19T06:15:02.600Z,2.36
2023-01-19T06:17:30.229Z,2.34
2023-01-19T06:19:58.071Z,2.33
2023-01-19T06:22:25.676Z,2.29
2023-01-19T06:24:53.359Z,2.24
2023-01-19T06:27:20.971Z,2.23
2023-01-19T06:29:48.675Z,2.29
2023-01-19T06:32:16.373Z,2.33
2023-01-19T06:34:44.098Z,2.32
2023-01-19T06:37:11.833Z,2.33
2023-01-19T06:39:41.246Z,2.34
2023-01-19T06:42:08.875Z,2.34
2023-01-19T06:44:36.517Z,2.31
2023-01-19T06:47:15.494Z,2.28
2023-01-19T06:49:43.958Z,2.29
2023-01-19T06:52:11.632Z,2.33
2023-01-19T06:54:39.229Z,2.28
2023-01-19T06:57:06.854Z,2.21
2023-01-19T06:59:34.513Z,2.17
2023-01-19T07:02:27.715Z,2.14
2023-01-19T07:04:49.861Z,2.13
2023-01-19T07:07:17.552Z,2.12
2023-01-19T07:09:45.171Z,2.08
2023-01-19T07:12:12.802Z,2.10
2023-01-19T07:14:41.268Z,2.12
2023-01-19T07:17:09.011Z,2.10
2023-01-19T07:19:36.903Z,2.05
2023-01-19T07:22:04.570Z,2.00
2023-01-19T07:24:33.811Z,1.92
2023-01-19T07:27:01.427Z,1.87
2023-01-19T07:29:29.136Z,1.83
2023-01-19T07:31:57.051Z,1.86
2023-01-19T07:34:24.664Z,1.89
2023-01-19T07:36:52.297Z,1.89
2023-01-19T07:39:20.267Z,1.92
2023-01-19T07:41:47.930Z,1.94
2023-01-19T07:44:15.554Z,1.94
2023-01-19T07:46:43.567Z,1.91
2023-01-19T07:49:11.802Z,1.91
2023-01-19T07:51:39.506Z,1.96
2023-01-19T07:54:08.629Z,1.96
2023-01-19T07:56:36.236Z,1.96
2023-01-19T07:59:03.864Z,1.98
2023-01-19T08:01:31.760Z,1.99
2023-01-19T08:03:59.476Z,1.97
2023-01-19T08:06:27.102Z,1.95
2023-01-19T08:08:54.719Z,1.86
2023-01-19T08:11:22.341Z,1.82
2023-01-19T08:13:50.024Z,1.88
2023-01-19T08:16:17.681Z,1.92
2023-01-19T08:18:45.350Z,1.95
2023-01-19T08:21:13.026Z,1.97
2023-01-19T08:23:40.701Z,2.00
2023-01-19T08:26:08.378Z,2.00
2023-01-19T08:28:35.982Z,1.99
2023-01-19T08:31:18.689Z,1.97
2023-01-19T08:33:48.001Z,2.01
2023-01-19T08:36:15.677Z,2.01
2023-01-19T08:38:45.153Z,1.98
2023-01-19T08:41:14.276Z,1.93
2023-01-19T08:43:41.872Z,1.82
2023-01-19T08:46:09.582Z,1.76
2023-01-19T08:48:39.713Z,1.74
2023-01-19T08:51:07.603Z,1.70
2023-01-19T08:53:35.262Z,1.64
2023-01-19T08:56:03.622Z,1.64
2023-01-19T08:58:31.236Z,1.61
2023-01-19T09:00:58.887Z,1.53
2023-01-19T09:03:26.553Z,1.51
2023-01-19T09:05:54.228Z,1.45
2023-01-19T09:08:21.844Z,1.37
2023-01-19T09:10:49.486Z,1.30
2023-01-19T09:13:17.177Z,1.31
2023-01-19T09:15:44.917Z,1.42
2023-01-19T09:18:13.838Z,1.48
2023-01-19T09:20:42.810Z,1.51
2023-01-19T09:23:13.343Z,1.58
2023-01-19T09:25:41.118Z,1.64
2023-01-19T09:28:09.472Z,1.73
2023-01-19T09:30:37.694Z,1.81
2023-01-19T09:33:06.546Z,1.93
2023-01-19T09:35:34.219Z,1.93
2023-01-19T09:38:02.219Z,1.84
2023-01-19T09:40:30.131Z,1.76
2023-01-19T09:42:59.429Z,1.71
2023-01-19T09:45:27.102Z,1.68
2023-01-19T09:47:54.768Z,1.67
2023-01-19T09:50:22.394Z,1.68
2023-01-19T09:52:50.174Z,1.71
2023-01-19T09:55:17.773Z,1.73
2023-01-19T09:57:45.490Z,1.68
2023-01-19T10:00:13.120Z,1.68
2023-01-19T10:02:40.866Z,1.69
2023-01-19T10:05:08.742Z,1.65
2023-01-19T10:07:36.389Z,1.62
2023-01-19T10:10:04.010Z,1.58
2023-01-19T10:12:31.669Z,1.52
2023-01-19T10:14:59.482Z,1.44
2023-01-19T10:17:27.130Z,1.38
2023-01-19T10:19:54.798Z,1.37
2023-01-19T10:22:22.490Z,1.31
2023-01-19T10:24:50.128Z,1.28
2023-01-19T10:27:20.945Z,1.28
2023-01-19T10:29:48.602Z,1.26
2023-01-19T10:32:17.495Z,1.21
2023-01-19T10:34:45.102Z,1.18
2023-01-19T10:37:12.752Z,1.17
2023-01-19T10:39:40.356Z,1.12
2023-01-19T10:42:07.970Z,1.19
2023-01-19T10:44:35.591Z,1.22
2023-01-19T10:47:03.320Z,1.24
2023-01-19T10:49:31.706Z,1.22
2023-01-19T10:51:59.374Z,1.19
2023-01-19T10:54:26.955Z,1.12
2023-01-19T10:56:54.732Z,1.11
2023-01-19T10:59:22.376Z,1.11
2023-01-19T11:01:50.208Z,1.09
2023-01-19T11:04:17.972Z,1.08
2023-01-19T11:06:45.576Z,1.07
2023-01-19T11:09:13.283Z,1.04
2023-01-19T11:11:40.896Z,1.05
2023-01-19T11:14:08.616Z,1.02
2023-01-19T11:16:38.311Z,1.07
2023-01-19T11:19:05.925Z,1.07
2023-01-19T11:21:33.617Z,1.05
2023-01-19T11:24:01.259Z,1.04
2023-01-19T11:26:29.192Z,1.04
2023-01-19T11:28:56.854Z,1.01
2023-01-19T11:31:24.593Z,1.08
2023-01-19T11:33:52.419Z,1.08
2023-01-19T11:36:21.346Z,1.06
2023-01-19T11:38:50.608Z,1.07
2023-01-19T11:41:18.353Z,1.12
2023-01-19T11:43:49.371Z,1.17
2023-01-19T11:46:17.339Z,1.19
2023-01-19T11:48:44.956Z,1.30
2023-01-19T11:51:12.547Z,1.35
2023-01-19T11:53:40.207Z,1.35
2023-01-19T11:56:07.867Z,1.33
2023-01-19T11:58:35.482Z,1.28
2023-01-19T12:01:03.152Z,1.28
2023-01-19T12:03:30.945Z,1.26
2023-01-19T12:05:58.609Z,1.26
2023-01-19T12:08:27.133Z,1.32
2023-01-19T12:10:54.756Z,1.30
2023-01-19T12:13:22.437Z,1.26
2023-01-19T12:15:50.486Z,1.23
2023-01-19T12:18:18.308Z,1.25
2023-01-19T12:20:45.951Z,1.25
2023-01-19T12:23:13.642Z,1.27
2023-01-19T12:25:41.403Z,1.32
2023-01-19T12:28:09.055Z,1.31
2023-01-19T12:30:36.808Z,1.32
2023-01-19T12:33:04.556Z,1.34
2023-01-19T12:35:32.175Z,1.32
2023-01-19T12:37:59.781Z,1.34
2023-01-19T12:40:27.491Z,1.33
2023-01-19T12:42:55.183Z,1.29
2023-01-19T12:45:23.601Z,1.28
2023-01-19T12:47:53.065Z,1.26
2023-01-19T12:50:21.339Z,1.21
2023-01-19T12:52:51.754Z,1.17
2023-01-19T12:55:19.463Z,1.10
2023-01-19T12:57:47.070Z,1.06
2023-01-19T13:00:16.917Z,1.00
2023-01-19T13:02:44.734Z,1.04
2023-01-19T13:05:12.606Z,1.05
2023-01-19T13:07:40.220Z,1.06
2023-01-19T13:10:07.845Z,1.06
2023-01-19T13:12:35.487Z,1.04
2023-01-19T13:15:03.099Z,1.02
2023-01-19T13:17:30.714Z,1.03
2023-01-19T13:19:58.543Z,1.05
2023-01-19T13:22:26.219Z,1.01
2023-01-19T13:24:53.871Z,0.94
2023-01-19T13:27:21.480Z,0.88
2023-01-19T13:29:49.101Z,0.84
2023-01-19T13:32:17.761Z,0.85
2023-01-19T13:34:45.433Z,0.91
2023-01-19T13:37:13.076Z,0.91
2023-01-19T13:39:40.699Z,0.94
2023-01-19T13:42:08.801Z,0.93
2023-01-19T13:44:36.489Z,0.92
2023-01-19T13:47:04.119Z,0.91
2023-01-19T13:49:31.810Z,0.93
2023-01-19T13:51:59.421Z,0.91
2023-01-19T13:54:27.097Z,0.87
2023-01-19T13:56:55.294Z,0.85
2023-01-19T13:59:23.024Z,0.90
2023-01-19T14:01:51.688Z,0.89
2023-01-19T14:04:20.013Z,0.92
2023-01-19T14:06:49.712Z,1.03
2023-01-19T14:09:17.528Z,1.09
2023-01-19T14:11:45.224Z,1.07
2023-01-19T14:14:12.861Z,1.01
2023-01-19T14:16:40.483Z,0.95
2023-01-19T14:19:08.439Z,0.95
2023-01-19T14:21:36.114Z,0.96
2023-01-19T14:24:03.738Z,1.02
2023-01-19T14:26:31.380Z,1.03
2023-01-19T14:28:59.005Z,0.97
2023-01-19T14:31:28.223Z,0.93
2023-01-19T14:33:55.892Z,0.90
2023-01-19T14:36:23.532Z,0.90
2023-01-19T14:38:51.161Z,0.90
2023-01-19T14:41:18.778Z,0.90
2023-01-19T14:43:46.429Z,0.96
2023-01-19T14:46:14.072Z,0.93
2023-01-19T14:48:41.665Z,0.89
2023-01-19T14:51:09.332Z,0.87
2023-01-19T14:53:37.042Z,0.87
2023-01-19T14:56:04.777Z,0.86
2023-01-19T14:58:32.700Z,0.83
2023-01-19T15:01:00.412Z,0.83
2023-01-19T15:03:43.446Z,0.85
2023-01-19T15:06:12.941Z,0.87
2023-01-19T15:08:40.570Z,0.82
2023-01-19T15:11:08.191Z,0.80
2023-01-19T15:13:35.829Z,0.80
2023-01-19T15:16:04.015Z,0.78
2023-01-19T15:18:31.661Z,0.80
2023-01-19T15:21:03.090Z,0.81
2023-01-19T15:23:30.857Z,0.81
2023-01-19T15:25:58.556Z,0.80
2023-01-19T15:28:26.198Z,0.80
2023-01-19T15:30:57.917Z,0.78
2023-01-19T15:33:25.651Z,0.80
2023-01-19T15:35:53.338Z,0.83
2023-01-19T15:38:21.092Z,0.82
2023-01-19T15:40:51.448Z,0.82
2023-01-19T15:43:21.196Z,0.85
2023-01-19T15:45:48.878Z,0.89
2023-01-19T15:48:16.528Z,0.90
2023-01-19T15:50:44.162Z,0.91
2023-01-19T15:53:11.812Z,1.00
2023-01-19T15:55:39.468Z,1.04
2023-01-19T15:58:07.148Z,1.02
2023-01-19T16:00:34.942Z,1.04
2023-01-19T16:03:02.555Z,1.07
2023-01-19T16:05:41.908Z,1.07
2023-01-19T16:08:10.039Z,1.08
2023-01-19T16:10:37.628Z,1.11
2023-01-19T16:13:05.364Z,1.19
2023-01-19T16:15:33.011Z,1.21
2023-01-19T16:18:00.649Z,1.20
2023-01-19T16:20:28.282Z,1.20
2023-01-19T16:23:00.720Z,1.19
2023-01-19T16:25:33.936Z,1.17
2023-01-19T16:28:01.611Z,1.16
2023-01-19T16:30:29.304Z,1.21
2023-01-19T16:32:56.992Z,1.23
2023-01-19T16:35:24.605Z,1.20
2023-01-19T16:37:52.268Z,1.17
2023-01-19T16:40:20.544Z,1.14
2023-01-19T16:42:48.199Z,1.14
2023-01-19T16:45:15.921Z,1.14
2023-01-19T16:47:45.563Z,1.16
2023-01-19T16:50:13.461Z,1.16
2023-01-19T16:52:42.286Z,1.15
2023-01-19T16:55:14.701Z,1.15
2023-01-19T16:57:42.332Z,1.11
2023-01-19T17:00:10.688Z,1.07
2023-01-19T17:02:38.577Z,1.05
2023-01-19T17:05:06.275Z,1.11
2023-01-19T17:07:33.928Z,1.15
2023-01-19T17:10:01.700Z,1.14
2023-01-19T17:12:32.086Z,1.13
2023-01-19T17:14:59.989Z,1.11
2023-01-19T17:17:27.674Z,1.11
2023-01-19T17:19:55.316Z,1.08
2023-01-19T17:22:22.941Z,1.08
2023-01-19T17:24:50.591Z,1.13
2023-01-19T17:27:18.225Z,1.13
2023-01-19T17:29:45.846Z,1.11
2023-01-19T17:32:13.532Z,1.08
2023-01-19T17:34:41.186Z,1.07
2023-01-19T17:37:08.791Z,1.07
2023-01-19T17:39:36.432Z,1.06
2023-01-19T17:42:04.116Z,1.10
2023-01-19T17:44:31.730Z,1.12
2023-01-19T17:47:00.068Z,1.09
2023-01-19T17:49:27.858Z,1.07
2023-01-19T17:51:55.949Z,1.06
2023-01-19T17:54:23.685Z,1.04
2023-01-19T17:56:51.369Z,1.02
2023-01-19T17:59:19.018Z,1.03
2023-01-19T18:01:46.869Z,1.09
2023-01-19T18:04:14.562Z,1.09
2023-01-19T18:06:42.197Z,1.05
2023-01-19T18:09:09.797Z,1.02
2023-01-19T18:11:37.492Z,0.99
2023-01-19T18:14:06.135Z,0.96
2023-01-19T18:16:33.987Z,0.92
2023-01-19T18:19:01.614Z,0.92
2023-01-19T18:21:30.591Z,0.96
2023-01-19T18:23:58.373Z,1.01
2023-01-19T18:26:25.966Z,1.02
2023-01-19T18:28:53.565Z,1.02
2023-01-19T18:31:21.208Z,0.97
2023-01-19T18:33:48.874Z,0.95
2023-01-19T18:36:16.515Z,1.01
2023-01-19T18:38:44.140Z,1.01
2023-01-19T18:41:11.767Z,0.97
2023-01-19T18:43:39.431Z,0.94
2023-01-19T18:46:07.223Z,0.89
2023-01-19T18:48:35.059Z,0.85
2023-01-19T18:51:03.584Z,0.85
2023-01-19T18:53:31.222Z,0.89
2023-01-19T18:55:58.830Z,0.96
2023-01-19T18:58:29.580Z,0.98
2023-01-19T19:00:57.276Z,0.97
2023-01-19T19:03:24.935Z,0.97
2023-01-19T19:05:52.627Z,0.97
2023-01-19T19:08:20.295Z,0.94
2023-01-19T19:10:47.978Z,0.91
2023-01-19T19:13:15.609Z,0.96
2023-01-19T19:15:44.594Z,1.02
2023-01-19T19:18:14.243Z,1.02
2023-01-19T19:20:45.046Z,1.01
2023-01-19T19:23:12.760Z,1.04
2023-01-19T19:25:40.593Z,1.06
2023-01-19T19:28:08.697Z,1.06
2023-01-19T19:30:38.001Z,1.06
2023-01-19T19:33:05.763Z,1.12
2023-01-19T19:35:33.371Z,1.14
2023-01-19T19:38:00.990Z,1.14
2023-01-19T19:40:28.647Z,1.12
2023-01-19T19:42:58.697Z,1.12
2023-01-19T19:45:27.111Z,1.11
2023-01-19T19:47:54.796Z,1.10
2023-01-19T19:50:22.403Z,1.11
2023-01-19T19:52:50.037Z,1.21
2023-01-19T19:55:17.691Z,1.25
2023-01-19T19:57:45.740Z,1.24
2023-01-19T20:00:13.529Z,1.21
2023-01-19T20:02:41.358Z,1.21
2023-01-19T20:05:09.080Z,1.24
2023-01-19T20:07:37.188Z,1.24
2023-01-19T20:10:04.794Z,1.31
2023-01-19T20:12:32.443Z,1.33
2023-01-19T20:15:00.067Z,1.33
2023-01-19T20:17:27.706Z,1.34
2023-01-19T20:19:55.321Z,1.32
2023-01-19T20:22:23.012Z,1.29
2023-01-19T20:24:51.624Z,1.32
2023-01-19T20:27:19.297Z,1.38
2023-01-19T20:29:51.475Z,1.39
2023-01-19T20:32:19.462Z,1.37
2023-01-19T20:34:47.096Z,1.35
2023-01-19T20:37:14.696Z,1.33
2023-01-19T20:39:42.837Z,1.30
2023-01-19T20:42:11.722Z,1.29
2023-01-19T20:44:39.323Z,1.33
2023-01-19T20:47:07.083Z,1.32
2023-01-19T20:49:34.762Z,1.29
2023-01-19T20:52:02.413Z,1.30
2023-01-19T20:54:30.669Z,1.30
2023-01-19T20:56:58.369Z,1.30
2023-01-19T20:59:26.016Z,1.28
2023-01-19T21:01:53.772Z,1.29
2023-01-19T21:04:22.503Z,1.34
2023-01-19T21:06:50.132Z,1.32
2023-01-19T21:09:18.758Z,1.31
2023-01-19T21:11:46.408Z,1.25
2023-01-19T21:14:14.088Z,1.21
2023-01-19T21:16:42.772Z,1.19
2023-01-19T21:19:10.533Z,1.18
2023-01-19T21:21:38.155Z,1.23
2023-01-19T21:24:05.787Z,1.21
2023-01-19T21:26:33.742Z,1.19
2023-01-19T21:29:01.546Z,1.18
2023-01-19T21:31:29.255Z,1.19
2023-01-19T21:33:57.147Z,1.17
2023-01-19T21:36:24.884Z,1.22
2023-01-19T21:38:52.660Z,1.27
2023-01-19T21:41:20.471Z,1.27
2023-01-19T21:43:48.075Z,1.24
2023-01-19T21:46:15.777Z,1.21
2023-01-19T21:48:44.628Z,1.20
2023-01-19T21:51:12.255Z,1.22
2023-01-19T21:53:39.874Z,1.30
2023-01-19T21:56:07.821Z,1.31
2023-01-19T21:58:35.455Z,1.28
2023-01-19T22:01:03.179Z,1.23
2023-01-19T22:03:31.011Z,1.24
2023-01-19T22:05:58.650Z,1.21
2023-01-19T22:08:26.304Z,1.17
2023-01-19T22:10:54.996Z,1.17
2023-01-19T22:13:22.677Z,1.21
2023-01-19T22:15:50.295Z,1.22
2023-01-19T22:18:17.966Z,1.18
2023-01-19T22:20:45.578Z,1.14
2023-01-19T22:23:13.188Z,1.10
2023-01-19T22:25:40.864Z,1.05
2023-01-19T22:28:08.476Z,1.08
2023-01-19T22:30:36.218Z,1.09
2023-01-19T22:33:03.958Z,1.06
2023-01-19T22:35:31.607Z,1.02
2023-01-19T22:37:59.230Z,0.98
2023-01-19T22:40:26.896Z,0.96
2023-01-19T22:42:54.519Z,0.94
2023-01-19T22:45:22.171Z,1.00
2023-01-19T22:47:49.861Z,1.00
2023-01-19T22:50:17.469Z,0.98
2023-01-19T22:52:45.076Z,0.97
2023-01-19T22:55:13.167Z,0.95
2023-01-19T22:57:41.041Z,0.93
2023-01-19T23:00:09.177Z,0.91
2023-01-19T23:02:36.835Z,0.96
2023-01-19T23:05:04.440Z,0.96
2023-01-19T23:07:32.084Z,0.94
2023-01-19T23:09:59.718Z,0.92
2023-01-19T23:12:27.368Z,0.90
2023-01-19T23:14:54.991Z,0.90
2023-01-19T23:17:22.602Z,0.88
2023-01-19T23:19:50.207Z,0.95
2023-01-19T23:22:17.920Z,0.98
2023-01-19T23:24:45.581Z,0.95
2023-01-19T23:27:13.242Z,0.97
2023-01-19T23:29:40.887Z,1.02
2023-01-19T23:32:08.540Z,1.03
2023-01-19T23:34:36.176Z,1.01
2023-01-19T23:37:03.836Z,1.07
2023-01-19T23:39:31.467Z,1.07
2023-01-19T23:41:59.225Z,1.04
2023-01-19T23:44:26.826Z,1.02
2023-01-19T23:46:54.454Z,1.02
2023-01-19T23:49:22.171Z,1.01
2023-01-19T23:51:49.841Z,1.02
2023-01-19T23:54:17.528Z,1.07
2023-01-19T23:56:45.199Z,1.09
2023-01-19T23:59:12.889Z,1.10
